Terminal Aerodrome Forecast
Issued by NWS

Home | Current Version | Previous Version | Text Only | Print | Product List | Glossary On
Versions: 1 2 3 4 5 6 7 8 9 10 11 12
029
FTUS45 KRIW 210520
TAFCOD
TAF
KCOD 210520Z 2106/2206 32006KT P6SM FEW100 BKN200
     FM211600 02008KT P6SM SCT200
     FM220200 32006KT P6SM FEW200
      AMD LTD TO CLD VIS AND WIND=

USA.gov is the U.S. government's official web portal to all federal, state and local government web resources and services.